Time;durP1;ratioP1;P1;durP2;ratioP2;P2;SDS_P1;SDS_P2;PMS_P1;PMS_P2;Temp;Humidity;BMP_temperature;BMP_pressure;BME280_temperature;BME280_humidity;BME280_pressure;Samples;Min_cycle;Max_cycle;Signal;HPM_P1;HPM_P2
2022/01/03 00:00:09;;;;;;;5.97;2.03;;;;;;;12.39;75.99;100529.81;5079961;28;20574;-60
2022/01/03 00:02:38;;;;;;;8.33;1.70;;;;;;;12.42;75.75;100536.63;5074175;28;20651;-60
2022/01/03 00:05:07;;;;;;;14.93;2.97;;;;;;;12.47;76.09;100552.13;5070295;28;20212;-60
2022/01/03 00:07:38;;;;;;;7.87;1.73;;;;;;;12.48;76.18;100559.94;5075413;28;20573;-60
2022/01/03 00:10:09;;;;;;;11.60;2.43;;;;;;;12.46;76.87;100598.31;5070418;28;20302;-60
2022/01/03 00:12:38;;;;;;;6.17;1.40;;;;;;;12.21;73.92;100622.09;5070027;28;20642;-60
2022/01/03 00:15:08;;;;;;;2.63;1.03;;;;;;;11.89;71.79;100611.19;5062307;28;20306;-60
2022/01/03 00:17:36;;;;;;;4.80;1.10;;;;;;;11.63;73.86;100585.38;5055855;28;20247;-60
2022/01/03 00:20:05;;;;;;;4.70;0.60;;;;;;;11.42;79.02;100607.91;5054953;28;20674;-60
2022/01/03 00:22:37;;;;;;;8.33;1.30;;;;;;;11.18;82.85;100617.25;5069056;28;20202;-60
2022/01/03 00:25:15;;;;;;;6.30;1.00;;;;;;;11.13;85.10;100608.06;5077062;28;20232;-59
2022/01/03 00:27:48;;;;;;;7.43;1.07;;;;;;;11.12;83.45;100622.31;5072982;28;20216;-60
2022/01/03 00:30:19;;;;;;;4.77;0.60;;;;;;;11.04;83.35;100622.22;5071657;28;20207;-60
2022/01/03 00:32:49;;;;;;;5.17;0.63;;;;;;;10.94;85.25;100641.69;5068657;28;20321;-60
2022/01/03 00:35:18;;;;;;;4.23;0.60;;;;;;;11.17;85.85;100634.16;5072244;28;20303;-60
2022/01/03 00:37:47;;;;;;;3.00;0.60;;;;;;;10.99;87.67;100621.84;5073712;28;20231;-60
2022/01/03 00:40:20;;;;;;;2.97;0.67;;;;;;;10.90;88.29;100608.47;5059508;28;20232;-60
2022/01/03 00:42:49;;;;;;;1.53;0.80;;;;;;;11.19;87.31;100608.31;5062177;28;20203;-61
2022/01/03 00:45:18;;;;;;;1.27;0.50;;;;;;;11.01;88.09;100617.19;5073768;28;20211;-60
2022/01/03 00:47:47;;;;;;;1.80;0.50;;;;;;;11.06;87.81;100615.78;5064336;28;20635;-61
2022/01/03 00:50:17;;;;;;;1.13;0.37;;;;;;;11.11;87.60;100620.66;5081601;28;20693;-61
2022/01/03 00:52:46;;;;;;;2.83;0.60;;;;;;;10.99;86.21;100622.69;5079976;28;20723;-61
2022/01/03 00:55:14;;;;;;;3.30;0.57;;;;;;;11.08;86.89;100613.00;5074065;28;20299;-59
2022/01/03 00:57:58;;;;;;;3.57;0.50;;;;;;;11.19;86.24;100618.09;5084741;28;20214;-62
2022/01/03 01:00:29;;;;;;;1.53;0.47;;;;;;;11.01;87.39;100617.19;5057202;28;20243;-60
2022/01/03 01:03:04;;;;;;;2.00;0.30;;;;;;;10.89;88.02;100624.53;5072193;28;20738;-60
2022/01/03 01:05:33;;;;;;;4.53;0.60;;;;;;;11.01;87.16;100622.50;5083330;28;20715;-61
2022/01/03 01:08:00;;;;;;;3.03;0.60;;;;;;;10.90;86.70;100635.00;5072730;28;20310;-61
2022/01/03 01:10:31;;;;;;;2.17;0.80;;;;;;;10.75;88.34;100627.66;5073351;28;20207;-61
2022/01/03 01:13:01;;;;;;;2.17;0.57;;;;;;;10.93;86.77;100624.09;5085076;28;20224;-61
2022/01/03 01:15:34;;;;;;;4.77;0.83;;;;;;;10.89;87.12;100628.03;5057602;28;20212;-60
2022/01/03 01:18:04;;;;;;;2.47;0.60;;;;;;;10.91;86.85;100646.44;5085581;28;20225;-61
2022/01/03 01:20:33;;;;;;;4.17;0.60;;;;;;;10.81;87.75;100638.53;5075896;28;20203;-59
2022/01/03 01:23:01;;;;;;;0.90;0.33;;;;;;;10.92;86.84;100642.78;5073884;28;20215;-59
2022/01/03 01:28:14;;;;;;;3.60;0.93;;;;;;;10.88;85.74;100650.22;5048198;28;20233;-61
2022/01/03 01:30:43;;;;;;;5.23;0.60;;;;;;;11.01;84.96;100649.88;5080431;28;20287;-60
2022/01/03 01:33:13;;;;;;;3.57;0.50;;;;;;;10.97;85.37;100648.53;5079259;28;20276;-60
2022/01/03 01:35:43;;;;;;;5.53;0.73;;;;;;;10.99;85.09;100649.22;5080184;28;20217;-60
2022/01/03 01:38:14;;;;;;;5.17;0.80;;;;;;;11.04;85.24;100659.38;5080444;28;20208;-60
2022/01/03 01:40:46;;;;;;;3.60;0.50;;;;;;;11.07;84.38;100654.63;5076563;28;20294;-60
2022/01/03 01:43:19;;;;;;;4.33;0.77;;;;;;;10.79;85.33;100659.06;5071130;28;20306;-60
2022/01/03 01:45:49;;;;;;;3.97;1.07;;;;;;;10.79;85.09;100652.91;5079835;28;20341;-60
2022/01/03 01:48:18;;;;;;;5.70;1.10;;;;;;;10.88;85.03;100652.88;5071668;28;20579;-58
2022/01/03 01:50:51;;;;;;;2.63;0.57;;;;;;;11.00;85.39;100652.69;5070027;28;20217;-62
2022/01/03 01:53:23;;;;;;;3.10;0.40;;;;;;;10.89;85.32;100643.94;5084925;28;20239;-60
2022/01/03 01:55:53;;;;;;;8.60;0.80;;;;;;;10.81;84.70;100646.50;5066029;28;20211;-60
2022/01/03 01:58:29;;;;;;;4.47;0.60;;;;;;;11.03;84.47;100653.22;5083947;28;20220;-60
2022/01/03 02:00:59;;;;;;;3.37;0.70;;;;;;;10.92;84.05;100651.59;5072461;28;20297;-60
2022/01/03 02:03:40;;;;;;;4.30;0.63;;;;;;;10.87;84.60;100653.84;5070152;28;20215;-60
2022/01/03 02:06:23;;;;;;;6.90;1.10;;;;;;;10.87;84.75;100639.75;5080754;28;20214;-61
2022/01/03 02:09:01;;;;;;;5.17;0.93;;;;;;;10.81;85.15;100641.19;5083117;28;20212;-61
2022/01/03 02:11:42;;;;;;;3.83;0.70;;;;;;;10.93;83.91;100645.31;5064887;28;20679;-61
2022/01/03 02:14:11;;;;;;;5.83;0.80;;;;;;;10.85;84.67;100658.47;5085719;28;20231;-61
2022/01/03 02:16:39;;;;;;;5.90;1.37;;;;;;;10.96;84.30;100652.16;5058331;28;20208;-61
2022/01/03 02:19:07;;;;;;;4.37;0.50;;;;;;;10.91;83.76;100660.53;5063994;28;20207;-61
2022/01/03 02:21:37;;;;;;;7.50;1.03;;;;;;;10.82;84.61;100661.41;5058015;28;20238;-61
2022/01/03 02:24:05;;;;;;;4.70;0.80;;;;;;;10.90;84.17;100669.50;5068329;28;20228;-61
2022/01/03 02:26:34;;;;;;;3.33;0.67;;;;;;;11.00;83.51;100676.56;5069796;28;20565;-59
2022/01/03 02:29:02;;;;;;;3.67;1.10;;;;;;;10.86;84.42;100681.38;5081719;28;20569;-61
2022/01/03 02:31:29;;;;;;;5.63;1.00;;;;;;;10.72;85.12;100683.66;5074782;28;20862;-59
2022/01/03 02:33:57;;;;;;;5.77;1.00;;;;;;;10.79;85.58;100680.28;5069440;28;20224;-60
2022/01/03 02:36:25;;;;;;;5.27;0.90;;;;;;;10.84;85.02;100680.66;5085804;28;20225;-60
2022/01/03 02:38:54;;;;;;;5.57;1.07;;;;;;;10.72;85.32;100678.34;5086236;28;20302;-59
2022/01/03 02:41:22;;;;;;;2.30;1.00;;;;;;;10.79;85.77;100669.66;5064698;28;20225;-60
2022/01/03 02:43:50;;;;;;;7.00;1.10;;;;;;;10.85;85.43;100669.09;5070305;28;20213;-60
2022/01/03 02:46:17;;;;;;;7.20;1.23;;;;;;;10.97;84.77;100660.94;5078873;28;20302;-61
2022/01/03 02:48:45;;;;;;;5.53;0.83;;;;;;;10.94;84.89;100657.59;5086943;28;20210;-60
2022/01/03 02:51:13;;;;;;;4.80;0.90;;;;;;;10.84;84.90;100646.19;5084204;28;20264;-60
2022/01/03 02:53:42;;;;;;;6.63;0.90;;;;;;;10.78;85.39;100644.13;5079430;28;20248;-60
2022/01/03 02:56:11;;;;;;;6.93;0.87;;;;;;;10.83;85.49;100659.59;5080334;28;20228;-61
2022/01/03 02:58:39;;;;;;;3.83;0.70;;;;;;;10.87;85.30;100661.81;5075824;28;20208;-60
2022/01/03 03:01:07;;;;;;;4.03;1.13;;;;;;;10.93;85.19;100666.53;5088860;28;20393;-59
2022/01/03 03:03:35;;;;;;;1.57;0.40;;;;;;;10.93;84.84;100671.00;5082201;28;20660;-60
2022/01/03 03:06:02;;;;;;;4.30;0.97;;;;;;;10.85;84.91;100663.78;5081298;28;20210;-60
2022/01/03 03:08:30;;;;;;;2.17;0.63;;;;;;;10.85;85.49;100674.38;5081282;28;20210;-61
2022/01/03 03:10:58;;;;;;;7.80;1.20;;;;;;;10.70;85.25;100659.94;5067403;28;20215;-61
2022/01/03 03:13:27;;;;;;;4.37;0.80;;;;;;;10.80;85.21;100666.03;5077856;28;20231;-60
2022/01/03 03:15:54;;;;;;;4.47;1.10;;;;;;;10.69;85.74;100663.56;5082960;28;20297;-61
2022/01/03 03:18:22;;;;;;;3.97;1.00;;;;;;;10.78;85.52;100664.50;5071349;28;20223;-61
2022/01/03 03:20:50;;;;;;;5.67;0.67;;;;;;;10.74;85.21;100666.59;5068590;28;20698;-59
2022/01/03 03:23:18;;;;;;;5.43;0.90;;;;;;;10.68;85.36;100666.34;5072859;28;20209;-60
2022/01/03 03:25:46;;;;;;;4.77;1.27;;;;;;;10.77;85.16;100663.66;5071135;28;20238;-60
2022/01/03 03:28:16;;;;;;;6.73;1.30;;;;;;;10.73;84.69;100659.63;5074422;28;20219;-60
2022/01/03 03:30:49;;;;;;;5.13;0.97;;;;;;;10.55;86.05;100671.97;5070315;28;20215;-60
2022/01/03 03:33:19;;;;;;;4.67;0.97;;;;;;;10.59;85.63;100652.13;5071107;28;20289;-60
2022/01/03 03:35:47;;;;;;;4.13;0.70;;;;;;;10.74;84.78;100655.97;5072687;28;20217;-60
2022/01/03 03:38:15;;;;;;;5.97;0.93;;;;;;;10.74;84.72;100655.16;5088728;28;20210;-60
2022/01/03 03:40:45;;;;;;;7.70;1.00;;;;;;;10.70;84.66;100659.94;5082008;28;20301;-61
2022/01/03 03:43:13;;;;;;;3.30;0.83;;;;;;;10.60;84.99;100656.47;5075575;28;20205;-60
2022/01/03 03:45:41;;;;;;;4.53;0.90;;;;;;;10.49;85.64;100648.66;5074988;28;20296;-60
2022/01/03 03:48:11;;;;;;;6.00;1.30;;;;;;;10.51;85.94;100644.91;5080591;28;20214;-61
2022/01/03 03:50:39;;;;;;;7.10;1.17;;;;;;;10.62;85.41;100651.84;5068629;28;20337;-61
2022/01/03 03:53:07;;;;;;;7.47;0.93;;;;;;;10.41;86.49;100654.69;5064704;28;20239;-60
2022/01/03 03:55:35;;;;;;;6.10;0.90;;;;;;;10.58;85.85;100650.47;5068930;28;20210;-59
2022/01/03 03:58:04;;;;;;;6.13;1.57;;;;;;;10.71;84.71;100642.19;5064575;28;20235;-60
2022/01/03 04:00:34;;;;;;;6.03;1.50;;;;;;;10.70;84.69;100644.00;5064210;28;20286;-60
2022/01/03 04:03:02;;;;;;;3.57;1.00;;;;;;;10.67;84.83;100656.72;5086401;28;20231;-60
2022/01/03 04:05:31;;;;;;;9.13;1.57;;;;;;;10.78;84.35;100652.06;5083113;28;20214;-61
2022/01/03 04:07:59;;;;;;;9.37;1.10;;;;;;;10.71;84.28;100653.66;5079910;28;20214;-60
2022/01/03 04:10:27;;;;;;;4.10;1.13;;;;;;;10.62;85.49;100666.94;5078658;28;20302;-60
2022/01/03 04:12:54;;;;;;;6.17;0.97;;;;;;;10.64;85.10;100659.69;5082901;28;20207;-59
2022/01/03 04:15:22;;;;;;;9.63;1.70;;;;;;;10.57;85.57;100664.69;5066003;28;20585;-60
2022/01/03 04:17:50;;;;;;;6.53;1.63;;;;;;;10.60;85.98;100672.38;5059438;28;20225;-60
2022/01/03 04:20:18;;;;;;;5.33;1.10;;;;;;;10.60;85.46;100669.72;5067008;28;20273;-60
2022/01/03 04:22:47;;;;;;;8.27;1.27;;;;;;;10.59;85.63;100673.34;5066900;28;20604;-60
2022/01/03 04:25:15;;;;;;;5.57;1.60;;;;;;;10.49;85.80;100677.81;5065285;28;20658;-60
2022/01/03 04:27:43;;;;;;;10.87;1.60;;;;;;;10.56;85.99;100677.09;5073637;28;20211;-61
2022/01/03 04:30:12;;;;;;;14.33;1.50;;;;;;;10.68;85.21;100675.13;5059677;28;20214;-61
2022/01/03 04:32:39;;;;;;;6.83;1.53;;;;;;;10.47;86.26;100677.13;5076392;28;20678;-60
2022/01/03 04:35:08;;;;;;;8.13;1.13;;;;;;;10.72;85.07;100667.75;5078476;28;20335;-59
2022/01/03 04:37:36;;;;;;;12.47;2.20;;;;;;;10.78;85.04;100683.91;5071701;28;20290;-60
2022/01/03 04:40:06;;;;;;;5.77;1.20;;;;;;;10.77;84.82;100687.53;5073544;28;20203;-60
2022/01/03 04:42:34;;;;;;;7.03;1.27;;;;;;;10.73;85.15;100685.34;5078907;28;20294;-60
2022/01/03 04:45:02;;;;;;;10.60;1.97;;;;;;;10.72;86.43;100684.50;5075833;28;20207;-60
2022/01/03 04:47:30;;;;;;;8.90;1.67;;;;;;;10.76;87.66;100687.69;5067190;28;20233;-60
2022/01/03 04:49:58;;;;;;;12.63;2.10;;;;;;;10.75;88.75;100673.56;5057467;28;20290;-61
2022/01/03 04:52:26;;;;;;;14.17;1.97;;;;;;;10.76;88.97;100654.03;5089197;28;20234;-60
2022/01/03 04:54:53;;;;;;;8.23;1.33;;;;;;;10.67;87.46;100659.38;5074331;28;20339;-60
2022/01/03 04:57:22;;;;;;;5.50;1.50;;;;;;;10.72;87.86;100665.09;5078965;28;20213;-61
2022/01/03 04:59:50;;;;;;;7.60;1.70;;;;;;;10.79;87.04;100667.03;5080670;28;20235;-61
2022/01/03 05:02:18;;;;;;;7.53;1.47;;;;;;;10.74;87.08;100671.06;5081451;28;20219;-60
2022/01/03 05:04:46;;;;;;;5.87;1.10;;;;;;;10.75;86.92;100676.22;5054155;28;20231;-61
2022/01/03 05:07:14;;;;;;;7.03;1.13;;;;;;;10.78;86.20;100677.75;5069938;28;20584;-60
2022/01/03 05:09:41;;;;;;;4.60;1.30;;;;;;;10.63;85.87;100664.13;5077632;28;20207;-59
2022/01/03 05:12:11;;;;;;;5.07;0.90;;;;;;;10.67;85.24;100657.56;5080204;28;20218;-60
2022/01/03 05:14:40;;;;;;;8.83;0.90;;;;;;;10.62;85.30;100651.84;5066227;28;20247;-60
2022/01/03 05:17:08;;;;;;;4.80;0.80;;;;;;;10.63;85.55;100639.44;5060342;28;20250;-59
2022/01/03 05:19:36;;;;;;;7.20;1.40;;;;;;;10.58;85.93;100650.47;5060168;28;20447;-60
2022/01/03 05:22:05;;;;;;;3.33;1.20;;;;;;;10.50;86.61;100655.66;5065795;28;20248;-60
2022/01/03 05:24:34;;;;;;;6.93;1.20;;;;;;;10.52;86.31;100653.69;5070371;28;20251;-59
2022/01/03 05:27:03;;;;;;;4.27;0.83;;;;;;;10.55;86.99;100645.47;5068059;28;20707;-60
2022/01/03 05:29:31;;;;;;;5.03;0.67;;;;;;;10.57;87.34;100643.47;5087956;28;20204;-60
2022/01/03 05:32:00;;;;;;;6.27;1.13;;;;;;;10.57;87.59;100640.81;5064525;28;20295;-59
2022/01/03 05:34:28;;;;;;;4.47;0.90;;;;;;;10.51;88.94;100644.06;5067680;28;20624;-60
2022/01/03 05:36:56;;;;;;;6.40;1.30;;;;;;;10.71;87.83;100635.06;5067644;28;20648;-60
2022/01/03 05:39:24;;;;;;;5.73;1.33;;;;;;;10.69;87.61;100641.50;5084053;28;20297;-60
2022/01/03 05:41:51;;;;;;;6.90;1.20;;;;;;;10.70;87.94;100640.53;5046352;28;20234;-60
2022/01/03 05:44:19;;;;;;;8.37;1.50;;;;;;;10.63;88.29;100632.31;5071045;28;20207;-60
2022/01/03 05:46:47;;;;;;;13.03;2.27;;;;;;;10.74;88.18;100628.63;5062868;28;20243;-59
2022/01/03 05:49:16;;;;;;;9.03;1.77;;;;;;;10.69;87.98;100631.72;5067747;28;20724;-61
2022/01/03 05:51:44;;;;;;;4.27;1.23;;;;;;;10.67;88.30;100638.16;5070703;28;20226;-60
2022/01/03 05:54:12;;;;;;;10.77;1.57;;;;;;;10.74;88.20;100641.88;5048877;28;20304;-60
2022/01/03 05:56:39;;;;;;;6.07;1.40;;;;;;;10.64;88.87;100644.59;5049130;28;20216;-60
2022/01/03 05:59:08;;;;;;;9.67;1.70;;;;;;;10.72;87.64;100647.38;5051237;28;20689;-58
2022/01/03 06:01:36;;;;;;;7.43;2.20;;;;;;;10.61;88.19;100654.66;5049813;28;20247;-59
2022/01/03 06:04:14;;;;;;;13.60;2.10;;;;;;;10.57;88.40;100652.28;5050607;28;20380;-60
2022/01/03 06:09:31;;;;;;;12.03;2.53;;;;;;;10.57;87.82;100648.78;5044964;28;20204;-60
2022/01/03 06:11:59;;;;;;;13.10;2.60;;;;;;;10.60;87.20;100650.31;5049998;28;20645;-60
2022/01/03 06:14:27;;;;;;;13.40;2.67;;;;;;;10.67;87.16;100638.16;5047928;28;20249;-60
2022/01/03 06:16:56;;;;;;;10.57;2.23;;;;;;;10.75;86.92;100641.75;5050010;28;20212;-60
2022/01/03 06:19:23;;;;;;;14.10;2.23;;;;;;;10.67;86.70;100646.94;5051711;28;20219;-59
2022/01/03 06:21:53;;;;;;;11.93;2.30;;;;;;;10.74;86.44;100642.72;5049193;28;20208;-60
2022/01/03 06:24:21;;;;;;;13.70;2.77;;;;;;;10.66;86.12;100641.78;5049965;28;20236;-60
2022/01/03 06:26:49;;;;;;;11.83;2.33;;;;;;;10.69;85.62;100647.63;5049419;28;20227;-60
2022/01/03 06:29:19;;;;;;;12.73;2.70;;;;;;;10.63;85.42;100637.63;5047968;28;20627;-60
2022/01/03 06:31:48;;;;;;;17.27;2.90;;;;;;;10.69;85.54;100637.03;5051922;28;20207;-60
2022/01/03 06:34:17;;;;;;;14.43;3.27;;;;;;;10.73;84.92;100641.06;5047135;28;20220;-60
2022/01/03 06:36:46;;;;;;;14.73;3.50;;;;;;;10.70;85.46;100638.72;5048988;28;20235;-62
2022/01/03 06:39:15;;;;;;;12.27;2.40;;;;;;;10.69;85.02;100637.03;5051657;28;20210;-61
2022/01/03 06:41:44;;;;;;;12.40;2.30;;;;;;;10.73;84.92;100635.75;5062579;28;20219;-61
2022/01/03 06:44:12;;;;;;;13.90;2.03;;;;;;;10.57;84.51;100632.88;5049345;28;20208;-61
2022/01/03 06:46:40;;;;;;;11.57;3.23;;;;;;;10.70;84.08;100638.72;5049841;28;20840;-61
2022/01/03 06:49:08;;;;;;;16.13;2.73;;;;;;;10.73;84.37;100633.09;5049250;28;20259;-61
2022/01/03 06:51:36;;;;;;;19.97;2.90;;;;;;;10.71;83.29;100624.47;5047900;28;20354;-60
2022/01/03 06:54:06;;;;;;;12.63;2.80;;;;;;;10.63;82.71;100627.00;5068072;28;20257;-61
2022/01/03 06:56:35;;;;;;;12.93;2.57;;;;;;;10.71;82.65;100619.16;5088117;28;20765;-60
2022/01/03 06:59:03;;;;;;;14.33;2.93;;;;;;;10.72;83.05;100623.50;5081084;28;20297;-61
2022/01/03 07:01:31;;;;;;;10.50;1.77;;;;;;;10.78;82.71;100617.59;5079886;28;20298;-60
2022/01/03 07:03:59;;;;;;;8.80;2.20;;;;;;;10.85;82.44;100618.69;5081772;28;20670;-60
2022/01/03 07:06:27;;;;;;;12.43;2.10;;;;;;;10.80;82.59;100628.06;5075365;28;20214;-59
2022/01/03 07:08:56;;;;;;;12.20;2.10;;;;;;;10.69;82.52;100626.41;5071640;28;20239;-63
2022/01/03 07:11:24;;;;;;;15.93;2.43;;;;;;;10.81;82.63;100622.63;5080894;28;20215;-60
2022/01/03 07:14:04;;;;;;;13.00;2.33;;;;;;;10.77;82.52;100623.88;5079230;28;20651;-60
2022/01/03 07:19:17;;;;;;;12.10;2.20;;;;;;;10.72;82.59;100631.44;5079710;28;20215;-61
2022/01/03 07:21:46;;;;;;;7.03;1.93;;;;;;;10.77;82.63;100634.50;5052568;28;20254;-60
2022/01/03 07:24:13;;;;;;;19.07;3.53;;;;;;;10.80;82.71;100628.91;5075461;28;20218;-61
2022/01/03 07:26:41;;;;;;;14.03;3.10;;;;;;;10.77;82.46;100631.84;5058294;28;20212;-60
2022/01/03 07:29:10;;;;;;;13.10;2.67;;;;;;;10.76;82.81;100637.28;5059048;28;20302;-59
2022/01/03 07:31:38;;;;;;;13.63;2.97;;;;;;;10.91;82.61;100630.50;5058871;28;20516;-58
2022/01/03 07:34:07;;;;;;;11.30;2.07;;;;;;;10.82;82.59;100626.91;5084926;28;20211;-61
2022/01/03 07:36:34;;;;;;;12.50;2.73;;;;;;;10.57;83.95;100631.06;5085144;28;20284;-60
2022/01/03 07:39:02;;;;;;;14.17;2.97;;;;;;;10.85;83.63;100626.63;5071330;28;20303;-59
2022/01/03 07:41:31;;;;;;;18.80;2.83;;;;;;;10.51;84.51;100634.28;5073296;28;20227;-60
2022/01/03 07:43:58;;;;;;;14.57;2.67;;;;;;;10.57;85.06;100623.09;5078883;28;20990;-61
2022/01/03 07:46:28;;;;;;;14.90;2.10;;;;;;;10.59;85.21;100628.25;5085635;28;20199;-60
2022/01/03 07:48:55;;;;;;;12.70;2.53;;;;;;;10.52;85.91;100625.38;5080470;28;20206;-60
2022/01/03 07:51:23;;;;;;;15.33;2.53;;;;;;;10.79;84.76;100637.84;5064877;28;20210;-61
2022/01/03 07:53:51;;;;;;;13.97;2.93;;;;;;;10.69;85.10;100642.34;5065639;28;20341;-61
2022/01/03 07:56:24;;;;;;;10.17;2.10;;;;;;;10.77;84.61;100638.97;5064939;28;20231;-60
2022/01/03 07:58:52;;;;;;;19.90;3.30;;;;;;;10.54;86.34;100639.31;5086830;28;20297;-61
2022/01/03 08:01:19;;;;;;;10.20;2.87;;;;;;;10.80;84.83;100634.22;5080684;28;20203;-59
2022/01/03 08:03:48;;;;;;;14.00;2.77;;;;;;;10.63;85.38;100634.97;5067481;28;20590;-60
2022/01/03 08:06:36;;;;;;;13.67;2.30;;;;;;;10.66;85.55;100641.78;5074772;28;20651;-60
2022/01/03 08:09:04;;;;;;;15.30;2.47;;;;;;;10.60;85.72;100640.56;5077934;28;20632;-59
2022/01/03 08:11:31;;;;;;;18.77;3.00;;;;;;;10.75;85.22;100638.25;5069056;28;20216;-61
2022/01/03 08:13:59;;;;;;;13.57;2.77;;;;;;;10.69;85.25;100647.63;5056654;28;20234;-60
2022/01/03 08:16:27;;;;;;;12.90;2.20;;;;;;;10.72;85.59;100644.72;5080595;28;20284;-61
2022/01/03 08:18:56;;;;;;;15.00;2.70;;;;;;;10.74;85.13;100645.38;5074192;28;20211;-60
2022/01/03 08:21:24;;;;;;;21.20;3.23;;;;;;;10.76;85.15;100642.59;5057231;28;20217;-60
2022/01/03 08:23:52;;;;;;;15.30;2.60;;;;;;;10.71;85.55;100640.38;5062255;28;20569;-60
2022/01/03 08:26:20;;;;;;;16.80;2.40;;;;;;;10.87;84.83;100637.94;5074373;28;20233;-60
2022/01/03 08:28:47;;;;;;;18.00;2.63;;;;;;;10.77;86.21;100636.31;5079240;28;20244;-60
2022/01/03 08:31:15;;;;;;;13.27;2.93;;;;;;;10.75;86.06;100641.75;5076669;28;20588;-60
2022/01/03 08:33:43;;;;;;;14.47;2.47;;;;;;;10.85;85.79;100631.09;5077169;28;20652;-60
2022/01/03 08:36:12;;;;;;;14.73;2.47;;;;;;;10.86;85.84;100630.97;5050617;28;20707;-61
2022/01/03 08:38:40;;;;;;;11.70;2.67;;;;;;;10.91;85.95;100639.31;5084383;28;20305;-60
2022/01/03 08:41:09;;;;;;;16.10;2.67;;;;;;;10.90;86.53;100629.69;5073903;28;20204;-59
2022/01/03 08:43:37;;;;;;;11.00;2.23;;;;;;;11.09;85.69;100635.88;5074642;28;20216;-61
2022/01/03 08:46:05;;;;;;;12.63;2.73;;;;;;;11.08;85.78;100637.69;5079707;28;20209;-61
2022/01/03 08:48:33;;;;;;;15.70;2.57;;;;;;;11.02;86.49;100638.28;5083805;28;20293;-60
2022/01/03 08:51:01;;;;;;;9.87;2.00;;;;;;;11.02;86.50;100637.44;5067041;28;20647;-61
2022/01/03 08:53:34;;;;;;;14.33;2.83;;;;;;;10.99;87.89;100637.75;5075323;28;20262;-62
2022/01/03 08:56:03;;;;;;;8.70;1.80;;;;;;;10.99;87.89;100629.81;5070370;28;20338;-60
2022/01/03 08:58:31;;;;;;;11.83;2.50;;;;;;;11.02;87.67;100629.50;5067995;28;20333;-61
2022/01/03 09:00:59;;;;;;;12.03;2.17;;;;;;;11.01;88.68;100627.81;5061122;28;20252;-61
2022/01/03 09:03:27;;;;;;;11.00;2.63;;;;;;;10.98;89.53;100621.00;5084792;28;20249;-61
2022/01/03 09:05:56;;;;;;;15.73;3.00;;;;;;;10.91;89.36;100626.03;5065323;28;20246;-61
2022/01/03 09:08:24;;;;;;;11.00;2.90;;;;;;;11.03;89.15;100617.91;5072571;28;20217;-61
2022/01/03 09:10:54;;;;;;;13.73;3.13;;;;;;;10.94;89.40;100622.28;5079039;28;20589;-60
2022/01/03 09:13:22;;;;;;;13.43;2.83;;;;;;;11.04;88.87;100625.72;5077288;28;20220;-60
2022/01/03 09:15:50;;;;;;;12.83;2.40;;;;;;;10.99;88.99;100633.28;5086368;28;20217;-60
2022/01/03 09:18:21;;;;;;;11.90;3.13;;;;;;;11.18;87.97;100627.03;5059975;28;20256;-61
2022/01/03 09:20:49;;;;;;;12.13;2.77;;;;;;;11.16;88.01;100623.72;5069722;28;20211;-61
2022/01/03 09:23:21;;;;;;;17.17;3.40;;;;;;;11.17;87.58;100628.03;5069917;28;20307;-60
2022/01/03 09:28:56;;;;;;;11.93;2.87;;;;;;;11.06;87.76;100620.25;5079705;28;20426;-61
2022/01/03 09:31:27;;;;;;;12.10;2.87;;;;;;;11.23;86.67;100624.78;5055404;28;20303;-61
2022/01/03 09:33:57;;;;;;;16.70;2.40;;;;;;;11.18;86.31;100629.69;5073466;28;20215;-61
2022/01/03 09:36:27;;;;;;;13.77;2.63;;;;;;;11.24;86.20;100631.75;5081209;28;20260;-61
2022/01/03 09:38:55;;;;;;;11.50;2.27;;;;;;;11.16;86.57;100629.03;5079033;28;20645;-58
2022/01/03 09:41:24;;;;;;;13.63;3.10;;;;;;;11.22;86.26;100628.41;5071239;28;20210;-61
2022/01/03 09:43:55;;;;;;;18.13;3.83;;;;;;;11.31;85.89;100640.81;5078629;28;20208;-61
2022/01/03 09:46:25;;;;;;;16.53;3.13;;;;;;;11.24;85.97;100637.06;5082962;28;20226;-61
2022/01/03 09:48:54;;;;;;;13.20;2.47;;;;;;;11.10;86.68;100637.56;5071885;28;20961;-61
2022/01/03 09:51:25;;;;;;;14.83;2.43;;;;;;;11.23;86.17;100638.88;5069696;28;20211;-60
2022/01/03 09:53:55;;;;;;;15.40;2.97;;;;;;;11.35;85.57;100642.16;5067322;28;20240;-60
2022/01/03 09:56:23;;;;;;;14.07;2.80;;;;;;;11.41;85.17;100633.63;5073213;28;20217;-59
2022/01/03 09:58:51;;;;;;;11.07;2.43;;;;;;;11.35;85.45;100636.84;5067119;28;20233;-60
2022/01/03 10:01:20;;;;;;;17.03;3.03;;;;;;;11.39;84.23;100640.06;5076226;28;20210;-61
2022/01/03 10:03:49;;;;;;;12.70;2.30;;;;;;;11.53;83.34;100628.91;5077336;28;20215;-61
2022/01/03 10:06:18;;;;;;;13.27;2.73;;;;;;;11.54;83.01;100623.44;5067892;28;20804;-61
2022/01/03 10:08:47;;;;;;;15.00;3.00;;;;;;;11.70;82.65;100612.97;5088901;28;20576;-61
2022/01/03 10:11:15;;;;;;;13.40;2.40;;;;;;;11.75;81.36;100619.72;5081537;28;20314;-61
2022/01/03 10:13:43;;;;;;;15.50;2.80;;;;;;;11.55;81.81;100618.97;5067963;28;20654;-60
2022/01/03 10:16:11;;;;;;;13.10;2.13;;;;;;;11.65;82.31;100623.25;5071752;28;20233;-60
2022/01/03 10:19:00;;;;;;;8.60;3.23;;;;;;;11.64;82.31;100612.75;5080241;28;20319;-61
2022/01/03 10:21:36;;;;;;;14.30;2.67;;;;;;;11.55;82.94;100606.53;5084491;28;20245;-60
2022/01/03 10:24:04;;;;;;;15.00;3.13;;;;;;;11.66;82.31;100606.31;5087308;28;20206;-61
2022/01/03 10:26:32;;;;;;;20.73;2.50;;;;;;;11.63;81.72;100600.47;5067209;28;20217;-61
2022/01/03 10:29:17;;;;;;;16.00;3.13;;;;;;;11.74;81.53;100591.44;5074356;28;20215;-61
2022/01/03 10:31:47;;;;;;;13.87;2.90;;;;;;;11.76;80.69;100595.66;5063572;28;20212;-62
2022/01/03 10:34:18;;;;;;;13.63;3.43;;;;;;;11.82;80.73;100599.50;5079627;28;20204;-60
2022/01/03 10:36:49;;;;;;;19.67;2.80;;;;;;;11.75;80.60;100595.78;5066276;28;20205;-61
2022/01/03 10:39:18;;;;;;;10.37;2.70;;;;;;;11.69;79.99;100589.25;5083320;28;20210;-60
2022/01/03 10:41:48;;;;;;;10.13;2.13;;;;;;;11.76;79.92;100581.53;5063160;28;20228;-61
2022/01/03 10:44:31;;;;;;;9.13;1.93;;;;;;;11.72;80.10;100574.81;5061937;28;20212;-60
2022/01/03 10:47:01;;;;;;;11.67;2.17;;;;;;;11.75;80.31;100577.19;5058070;28;20298;-60
2022/01/03 10:49:31;;;;;;;14.00;2.40;;;;;;;11.78;80.41;100566.28;5053737;28;20212;-61
2022/01/03 10:52:16;;;;;;;11.60;1.97;;;;;;;11.77;81.26;100560.13;5075625;28;20236;-60
2022/01/03 10:54:46;;;;;;;14.97;2.50;;;;;;;11.85;81.30;100564.66;5084703;28;20207;-61
2022/01/03 10:57:14;;;;;;;10.90;2.67;;;;;;;11.82;82.15;100549.88;5081320;28;20571;-61
2022/01/03 10:59:42;;;;;;;14.87;2.20;;;;;;;11.90;81.96;100543.78;5068395;28;20295;-59
2022/01/03 11:02:12;;;;;;;10.73;2.33;;;;;;;11.94;81.49;100537.19;5066556;28;20212;-60
2022/01/03 11:04:49;;;;;;;16.03;2.23;;;;;;;11.92;80.56;100531.16;5071281;28;20207;-60
2022/01/03 11:13:14;;;;;;;12.80;2.20;;;;;;;12.03;79.81;100521.13;5076749;28;20215;-60
2022/01/03 11:15:43;;;;;;;11.50;2.77;;;;;;;11.98;79.74;100528.72;5074109;28;20218;-61
2022/01/03 11:18:17;;;;;;;11.13;2.73;;;;;;;12.07;79.71;100525.13;5073126;28;20234;-61
2022/01/03 11:20:50;;;;;;;13.20;2.60;;;;;;;12.07;79.75;100525.13;5079148;28;20307;-61
2022/01/03 11:23:23;;;;;;;12.27;1.73;;;;;;;12.10;79.63;100524.00;5079218;28;20203;-58
2022/01/03 11:25:53;;;;;;;18.83;2.60;;;;;;;12.13;79.74;100534.31;5077545;28;20271;-60
2022/01/03 11:28:22;;;;;;;10.60;2.03;;;;;;;12.13;79.35;100539.63;5060657;28;20212;-61
2022/01/03 11:30:52;;;;;;;9.67;2.07;;;;;;;12.04;78.99;100524.63;5070834;28;20259;-60
2022/01/03 11:33:20;;;;;;;14.97;2.43;;;;;;;12.05;78.79;100520.94;5067727;28;20245;-59
2022/01/03 11:36:10;;;;;;;21.47;4.23;;;;;;;12.03;79.40;100501.69;5052625;28;20659;-60
2022/01/03 11:38:40;;;;;;;12.60;2.30;;;;;;;12.02;79.10;100495.53;5088808;28;20320;-60
2022/01/03 11:41:10;;;;;;;8.00;1.97;;;;;;;12.04;79.30;100493.56;5081603;28;20211;-61
2022/01/03 11:43:41;;;;;;;9.43;2.10;;;;;;;12.13;78.81;100490.94;5072826;28;20237;-60
2022/01/03 11:46:09;;;;;;;18.50;2.77;;;;;;;12.08;78.59;100486.09;5065668;28;20284;-58
2022/01/03 11:48:37;;;;;;;12.93;2.63;;;;;;;12.09;78.63;100485.09;5058902;28;20210;-60